createdAt,value
2023-02-02T00:01:20.231Z,2.13
2023-02-02T00:05:22.542Z,2.00
2023-02-02T00:09:28.967Z,2.15
2023-02-02T00:13:31.242Z,2.20
2023-02-02T00:17:33.243Z,3.97
2023-02-02T00:21:36.073Z,2.50
2023-02-02T00:25:38.064Z,1.85
2023-02-02T00:29:40.400Z,2.38
2023-02-02T00:33:47.058Z,2.35
2023-02-02T00:37:49.122Z,2.40
2023-02-02T00:41:51.185Z,2.58
2023-02-02T00:45:54.011Z,2.40
2023-02-02T00:49:56.026Z,2.10
2023-02-02T00:53:58.051Z,2.50
2023-02-02T00:58:00.129Z,2.40
2023-02-02T01:02:02.239Z,2.20
2023-02-02T01:06:04.709Z,2.42
2023-02-02T01:10:10.758Z,2.45
2023-02-02T01:14:12.788Z,2.50
2023-02-02T01:18:14.827Z,2.47
2023-02-02T01:22:17.298Z,2.20
2023-02-02T01:26:20.189Z,2.35
2023-02-02T01:30:22.197Z,2.70
2023-02-02T01:34:24.363Z,2.80
2023-02-02T01:38:26.378Z,2.90
2023-02-02T01:42:28.376Z,2.58
2023-02-02T01:46:36.062Z,2.97
2023-02-02T01:50:38.069Z,3.63
2023-02-02T01:54:50.330Z,3.25
2023-02-02T01:58:52.944Z,2.95
2023-02-02T02:03:00.851Z,2.97
2023-02-02T02:07:05.257Z,3.10
2023-02-02T02:11:07.310Z,3.00
2023-02-02T02:15:29.702Z,3.28
2023-02-02T02:20:24.869Z,3.28
2023-02-02T02:25:07.789Z,3.30
2023-02-02T02:29:30.142Z,2.97
2023-02-02T02:34:14.023Z,3.30
2023-02-02T02:38:34.301Z,3.20
2023-02-02T02:42:42.976Z,3.45
2023-02-02T02:46:45.761Z,3.60
2023-02-02T02:50:47.907Z,3.00
2023-02-02T02:54:55.647Z,3.13
2023-02-02T02:59:07.201Z,3.00
2023-02-02T03:03:16.910Z,2.88
2023-02-02T03:07:37.945Z,3.05
2023-02-02T03:11:40.378Z,2.90
2023-02-02T03:15:46.528Z,2.55
2023-02-02T03:19:48.626Z,3.10
2023-02-02T03:23:50.693Z,2.35
2023-02-02T03:27:53.211Z,2.65
2023-02-02T03:31:55.321Z,2.33
2023-02-02T03:35:57.352Z,2.10
2023-02-02T03:40:00.305Z,2.10
2023-02-02T03:44:02.364Z,2.28
2023-02-02T03:48:05.187Z,2.40
2023-02-02T03:52:07.261Z,2.33
2023-02-02T03:56:09.295Z,2.75
2023-02-02T04:00:11.715Z,2.53
2023-02-02T04:04:16.507Z,2.22
2023-02-02T04:08:18.487Z,2.50
2023-02-02T04:12:20.444Z,2.67
2023-02-02T04:16:22.537Z,2.88
2023-02-02T04:20:24.645Z,2.85
2023-02-02T04:24:26.691Z,2.78
2023-02-02T04:28:28.749Z,2.53
2023-02-02T04:32:30.748Z,2.72
2023-02-02T04:36:32.780Z,2.72
2023-02-02T04:40:38.394Z,2.70
2023-02-02T04:44:40.842Z,3.47
2023-02-02T04:48:43.531Z,3.00
2023-02-02T04:52:45.591Z,3.70
2023-02-02T04:56:47.639Z,3.20
2023-02-02T05:00:49.709Z,3.90
2023-02-02T05:04:51.788Z,3.50
2023-02-02T05:08:53.775Z,3.63
2023-02-02T05:12:56.053Z,3.20
2023-02-02T05:16:58.083Z,3.08
2023-02-02T05:21:01.602Z,2.47
2023-02-02T05:25:04.588Z,2.50
2023-02-02T05:29:06.778Z,2.38
2023-02-02T05:33:08.814Z,2.10
2023-02-02T05:37:10.823Z,2.13
2023-02-02T05:41:12.908Z,1.90
2023-02-02T05:45:15.284Z,1.80
2023-02-02T05:49:17.285Z,1.77
2023-02-02T05:53:19.312Z,1.80
2023-02-02T05:57:21.328Z,2.00
2023-02-02T06:01:23.447Z,1.70
2023-02-02T06:05:25.811Z,1.90
2023-02-02T06:09:28.022Z,1.80
2023-02-02T06:13:30.251Z,1.50
2023-02-02T06:17:32.243Z,1.70
2023-02-02T06:21:34.299Z,1.50
2023-02-02T06:25:36.282Z,1.30
2023-02-02T06:29:38.303Z,1.23
2023-02-02T06:33:40.409Z,2.20
2023-02-02T06:37:42.651Z,2.15
2023-02-02T06:41:46.549Z,2.08
2023-02-02T06:45:48.562Z,1.67
2023-02-02T06:49:50.566Z,1.67
2023-02-02T06:53:52.565Z,1.52
2023-02-02T06:57:57.484Z,1.52
2023-02-02T07:01:59.617Z,1.88
2023-02-02T07:06:15.324Z,1.77
2023-02-02T07:11:13.894Z,1.63
2023-02-02T07:14:40.819Z,1.58
2023-02-02T07:18:43.673Z,2.20
2023-02-02T07:22:45.866Z,2.00
2023-02-02T07:26:47.988Z,2.40
2023-02-02T07:30:50.277Z,2.13
2023-02-02T07:34:52.340Z,2.20
2023-02-02T07:38:54.699Z,2.28
2023-02-02T07:43:00.497Z,2.10
2023-02-02T07:47:02.587Z,2.33
2023-02-02T07:51:06.914Z,2.10
2023-02-02T07:55:14.878Z,2.00
2023-02-02T07:59:17.079Z,2.10
2023-02-02T08:03:19.467Z,2.35
2023-02-02T08:07:24.505Z,2.00
2023-02-02T08:11:28.064Z,2.05
2023-02-02T08:15:30.085Z,2.20
2023-02-02T08:19:32.066Z,2.25
2023-02-02T08:23:36.438Z,2.58
2023-02-02T08:27:38.454Z,2.00
2023-02-02T08:31:43.390Z,2.50
2023-02-02T08:35:47.180Z,2.20
2023-02-02T08:39:49.189Z,1.88
2023-02-02T08:43:51.417Z,1.85
2023-02-02T08:48:10.365Z,1.88
2023-02-02T08:52:13.140Z,2.05
2023-02-02T08:56:21.108Z,1.70
2023-02-02T09:00:23.455Z,2.40
2023-02-02T09:04:25.579Z,1.60
2023-02-02T09:08:27.600Z,2.00
2023-02-02T09:12:30.572Z,1.80
2023-02-02T09:16:34.729Z,1.45
2023-02-02T09:20:36.738Z,2.00
2023-02-02T09:24:38.759Z,1.67
2023-02-02T09:28:43.429Z,1.80
2023-02-02T09:32:49.576Z,1.48
2023-02-02T09:36:51.871Z,1.33
2023-02-02T09:40:53.892Z,1.45
2023-02-02T09:44:57.952Z,1.27
2023-02-02T09:49:09.637Z,1.35
2023-02-02T09:53:28.833Z,1.45
2023-02-02T09:57:41.810Z,1.02
2023-02-02T10:01:46.312Z,1.20
2023-02-02T10:05:58.196Z,1.30
2023-02-02T10:10:07.922Z,2.13
2023-02-02T10:14:22.918Z,1.30
2023-02-02T10:18:39.331Z,1.08
2023-02-02T10:22:41.883Z,1.10
2023-02-02T10:26:48.413Z,1.20
2023-02-02T10:31:00.974Z,1.05
2023-02-02T10:35:16.972Z,1.40
2023-02-02T10:39:36.112Z,1.52
2023-02-02T10:43:57.301Z,1.63
2023-02-02T10:47:59.672Z,1.92
2023-02-02T10:52:05.356Z,2.08
2023-02-02T10:56:13.061Z,3.30
2023-02-02T11:00:22.950Z,2.63
2023-02-02T11:04:43.906Z,2.55
2023-02-02T11:08:49.061Z,1.50
2023-02-02T11:12:53.591Z,1.40
2023-02-02T11:17:06.630Z,1.30
2023-02-02T11:21:30.230Z,1.70
2023-02-02T11:25:37.771Z,1.27
2023-02-02T11:29:39.772Z,1.45
2023-02-02T11:33:41.772Z,2.20
2023-02-02T11:38:01.751Z,1.30
2023-02-02T11:42:16.028Z,1.20
2023-02-02T11:46:21.812Z,1.20
2023-02-02T11:50:27.549Z,1.35
2023-02-02T11:54:33.272Z,2.03
2023-02-02T11:58:47.617Z,1.85
2023-02-02T12:02:49.727Z,1.63
2023-02-02T12:06:51.808Z,1.45
2023-02-02T12:11:03.201Z,1.50
2023-02-02T12:15:29.580Z,1.60
2023-02-02T12:19:49.851Z,1.73
2023-02-02T12:24:20.811Z,2.28
2023-02-02T12:28:47.111Z,1.70
2023-02-02T12:33:21.492Z,2.10
2023-02-02T12:37:32.483Z,3.15
2023-02-02T12:41:43.546Z,2.35
2023-02-02T12:46:04.970Z,2.78
2023-02-02T12:50:29.965Z,3.10
2023-02-02T12:55:06.039Z,3.50
2023-02-02T12:59:08.310Z,3.83
2023-02-02T13:03:48.038Z,3.78
2023-02-02T13:07:55.078Z,3.75
2023-02-02T13:12:09.190Z,3.90
2023-02-02T13:16:14.244Z,4.22
2023-02-02T13:20:38.075Z,4.05
2023-02-02T13:24:44.525Z,4.28
2023-02-02T13:29:00.195Z,4.00
2023-02-02T13:33:23.961Z,3.25
2023-02-02T13:37:37.038Z,3.90
2023-02-02T13:41:39.654Z,3.45
2023-02-02T13:45:47.155Z,4.80
2023-02-02T13:49:56.033Z,4.70
2023-02-02T13:54:10.269Z,4.38
2023-02-02T13:58:37.655Z,4.00
2023-02-02T14:02:51.823Z,6.13
2023-02-02T14:07:06.427Z,7.88
2023-02-02T14:11:08.803Z,3.50
2023-02-02T14:15:13.285Z,3.20
2023-02-02T14:19:28.405Z,3.10
2023-02-02T14:23:50.930Z,2.92
2023-02-02T14:28:01.559Z,4.30
2023-02-02T14:32:29.482Z,2.92
2023-02-02T14:36:32.045Z,3.17
2023-02-02T14:40:40.035Z,4.53
2023-02-02T14:45:04.738Z,4.40
2023-02-02T14:49:16.994Z,2.60
2023-02-02T14:53:22.190Z,3.00
2023-02-02T14:57:27.706Z,3.00
2023-02-02T15:01:33.197Z,2.88
2023-02-02T15:05:39.015Z,2.85
2023-02-02T15:09:44.285Z,2.78
2023-02-02T15:13:52.415Z,2.53
2023-02-02T15:18:05.140Z,2.90
2023-02-02T15:22:35.464Z,2.42
2023-02-02T15:26:42.781Z,2.53
2023-02-02T15:30:50.729Z,1.80
2023-02-02T15:35:05.578Z,2.20
2023-02-02T15:39:27.941Z,1.92
2023-02-02T15:43:30.131Z,1.60
2023-02-02T15:47:38.939Z,1.90
2023-02-02T15:51:53.474Z,2.90
2023-02-02T15:55:57.353Z,2.15
2023-02-02T16:00:01.856Z,1.98
2023-02-02T16:04:28.949Z,1.60
2023-02-02T16:08:35.421Z,2.20
2023-02-02T16:12:40.277Z,1.90
2023-02-02T16:16:42.389Z,1.73
2023-02-02T16:20:47.001Z,1.73
2023-02-02T16:24:52.787Z,1.40
2023-02-02T16:28:55.223Z,2.33
2023-02-02T16:32:57.415Z,1.30
2023-02-02T16:37:31.966Z,1.60
2023-02-02T16:41:35.918Z,1.30
2023-02-02T16:45:59.315Z,2.35
2023-02-02T16:50:07.692Z,1.40
2023-02-02T16:54:09.655Z,1.75
2023-02-02T16:58:17.911Z,1.40
2023-02-02T17:02:29.769Z,0.95
2023-02-02T17:06:50.128Z,1.75
2023-02-02T17:11:02.254Z,1.40
2023-02-02T17:15:16.282Z,1.58
2023-02-02T17:19:18.250Z,1.30
2023-02-02T17:23:20.447Z,1.25
2023-02-02T17:27:33.888Z,1.27
2023-02-02T17:31:36.557Z,1.27
2023-02-02T17:35:52.994Z,1.27
2023-02-02T17:39:56.723Z,1.33
2023-02-02T17:43:58.770Z,1.42
2023-02-02T17:48:01.969Z,2.03
2023-02-02T17:52:04.115Z,1.25
2023-02-02T17:56:06.388Z,1.45
2023-02-02T18:00:09.096Z,1.77
2023-02-02T18:04:13.937Z,2.25
2023-02-02T18:08:16.006Z,1.35
2023-02-02T18:12:18.137Z,1.60
2023-02-02T18:16:21.232Z,1.27
2023-02-02T18:20:23.823Z,2.72
2023-02-02T18:24:25.912Z,2.10
2023-02-02T18:28:28.118Z,1.38
2023-02-02T18:32:30.243Z,1.20
2023-02-02T18:36:33.923Z,1.50
2023-02-02T18:40:35.982Z,1.50
2023-02-02T18:44:38.542Z,1.40
2023-02-02T18:48:41.542Z,1.38
2023-02-02T18:52:43.553Z,1.52
2023-02-02T18:56:45.622Z,1.88
2023-02-02T19:00:47.737Z,1.92
2023-02-02T19:05:08.178Z,1.50
2023-02-02T19:09:11.248Z,1.20
2023-02-02T19:13:20.228Z,1.30
2023-02-02T19:17:24.435Z,1.33
2023-02-02T19:21:30.280Z,1.45
2023-02-02T19:25:32.484Z,1.48
2023-02-02T19:29:36.065Z,1.27
2023-02-02T19:33:47.879Z,1.15
2023-02-02T19:37:57.515Z,7.68
2023-02-02T19:42:00.647Z,2.17
2023-02-02T19:46:14.009Z,1.33
2023-02-02T19:50:20.148Z,1.55
2023-02-02T19:54:37.493Z,1.38
2023-02-02T19:58:39.718Z,1.20
2023-02-02T20:03:00.153Z,1.48
2023-02-02T20:07:12.234Z,1.30
2023-02-02T20:11:37.849Z,1.42
2023-02-02T20:15:39.965Z,1.42
2023-02-02T20:19:45.061Z,1.50
2023-02-02T20:23:47.358Z,1.70
2023-02-02T20:27:49.927Z,1.25
2023-02-02T20:31:54.497Z,1.70
2023-02-02T20:35:56.604Z,1.63
2023-02-02T20:40:02.397Z,1.63
2023-02-02T20:44:04.420Z,2.03
2023-02-02T20:48:06.894Z,1.83
2023-02-02T20:52:12.885Z,1.40
2023-02-02T20:56:14.904Z,1.83
2023-02-02T21:00:19.340Z,1.63
2023-02-02T21:04:21.816Z,2.00
2023-02-02T21:08:23.854Z,1.67
2023-02-02T21:12:26.008Z,1.80
2023-02-02T21:16:28.156Z,1.92
2023-02-02T21:20:30.173Z,2.33
2023-02-02T21:24:32.203Z,1.88
2023-02-02T21:28:34.202Z,1.85
2023-02-02T21:32:36.425Z,1.85
2023-02-02T21:36:43.019Z,1.60
2023-02-02T21:40:47.066Z,2.05
2023-02-02T21:44:54.017Z,1.73
2023-02-02T21:48:56.077Z,1.88
2023-02-02T21:53:20.191Z,1.92
2023-02-02T21:57:34.785Z,2.20
2023-02-02T22:01:39.450Z,1.90
2023-02-02T22:05:41.541Z,1.92
2023-02-02T22:09:45.686Z,1.77
2023-02-02T22:13:48.457Z,1.90
2023-02-02T22:17:50.473Z,2.00
2023-02-02T22:21:54.091Z,2.05
2023-02-02T22:25:58.467Z,1.83
2023-02-02T22:30:25.878Z,1.63
2023-02-02T22:34:28.090Z,2.20
2023-02-02T22:38:30.107Z,2.38
2023-02-02T22:42:32.090Z,1.80
2023-02-02T22:46:34.128Z,2.25
2023-02-02T22:50:36.142Z,1.92
2023-02-02T22:54:38.254Z,2.10
2023-02-02T22:58:40.270Z,2.03
2023-02-02T23:02:42.836Z,1.92
2023-02-02T23:06:44.874Z,2.20
2023-02-02T23:10:47.553Z,2.20
2023-02-02T23:14:49.567Z,2.30
2023-02-02T23:18:51.584Z,2.28
2023-02-02T23:22:53.579Z,2.40
2023-02-02T23:26:55.553Z,2.40
2023-02-02T23:30:59.155Z,2.42
2023-02-02T23:35:01.862Z,2.17
2023-02-02T23:39:04.130Z,1.73
2023-02-02T23:43:06.521Z,1.75
2023-02-02T23:47:08.931Z,1.83
2023-02-02T23:51:11.763Z,1.60
2023-02-02T23:55:14.915Z,2.00
2023-02-02T23:59:16.994Z,2.08
